Terminal Aerodrome Forecast
Issued by NWS

Current Version | Previous Version | Text Only | Print | Product List | Glossary On
Versions: 1 2 3 4 5 6 7 8 9 10 11 12
000
FTUS45 KGJT 252325
TAFVEL
TAF
KVEL 252325Z 2600/2624 20004KT P6SM FEW250
     FM260100 26007KT P6SM SCT250
     FM261400 15003KT P6SM SCT140 BKN200
     FM261900 23008KT P6SM SCT140 BKN200=

USA.gov is the U.S. government's official web portal to all federal, state and local government web resources and services.